createdAt,value
2022-09-07T00:00:04.451Z,0.00
2022-09-07T00:01:04.401Z,0.00
2022-09-07T00:02:04.392Z,0.00
2022-09-07T00:03:04.492Z,0.00
2022-09-07T00:04:04.431Z,0.00
2022-09-07T00:05:04.390Z,0.00
2022-09-07T00:06:04.341Z,0.00
2022-09-07T00:07:04.330Z,0.00
2022-09-07T00:08:04.332Z,0.00
2022-09-07T00:09:04.342Z,0.00
2022-09-07T00:10:04.353Z,0.00
2022-09-07T00:11:04.272Z,0.00
2022-09-07T00:12:04.261Z,0.00
2022-09-07T00:13:04.249Z,0.00
2022-09-07T00:14:04.240Z,0.00
2022-09-07T00:15:04.270Z,0.00
2022-09-07T00:16:04.342Z,0.00
2022-09-07T00:17:04.213Z,0.00
2022-09-07T00:18:04.181Z,0.00
2022-09-07T00:19:04.172Z,0.00
2022-09-07T00:20:04.192Z,0.00
2022-09-07T00:21:04.153Z,0.00
2022-09-07T00:22:04.132Z,0.00
2022-09-07T00:23:04.123Z,0.00
2022-09-07T00:24:04.136Z,0.00
2022-09-07T00:25:04.214Z,0.00
2022-09-07T00:26:04.084Z,0.00
2022-09-07T00:27:04.074Z,0.00
2022-09-07T00:28:04.053Z,0.00
2022-09-07T00:29:04.036Z,0.00
2022-09-07T00:30:04.083Z,0.00
2022-09-07T00:31:04.071Z,0.00
2022-09-07T00:32:04.002Z,0.00
2022-09-07T00:33:03.983Z,0.00
2022-09-07T00:34:04.439Z,0.00
2022-09-07T00:35:04.444Z,0.00
2022-09-07T00:36:03.953Z,0.00
2022-09-07T00:37:03.933Z,0.00
2022-09-07T00:38:03.924Z,0.00
2022-09-07T00:39:03.909Z,0.00
2022-09-07T00:40:04.020Z,0.00
2022-09-07T00:41:03.875Z,0.00
2022-09-07T00:42:03.874Z,0.00
2022-09-07T00:43:03.855Z,0.00
2022-09-07T00:44:03.843Z,0.00
2022-09-07T00:45:03.874Z,0.00
2022-09-07T00:46:03.873Z,0.00
2022-09-07T00:47:03.805Z,0.00
2022-09-07T00:48:03.794Z,0.00
2022-09-07T00:49:03.795Z,0.00
2022-09-07T00:50:03.795Z,0.00
2022-09-07T00:51:03.764Z,0.00
2022-09-07T00:52:03.756Z,0.00
2022-09-07T00:53:03.745Z,0.00
2022-09-07T00:54:03.713Z,0.00
2022-09-07T00:55:03.735Z,0.00
2022-09-07T00:56:03.684Z,0.00
2022-09-07T00:57:03.685Z,0.00
2022-09-07T00:58:03.656Z,0.00
2022-09-07T00:59:03.653Z,0.00
2022-09-07T01:00:03.673Z,0.00
2022-09-07T01:01:03.625Z,0.00
2022-09-07T01:02:03.755Z,0.00
2022-09-07T01:03:03.739Z,0.00
2022-09-07T01:04:03.585Z,0.00
2022-09-07T01:05:07.553Z,0.00
2022-09-07T01:06:04.556Z,0.00
2022-09-07T01:07:03.565Z,0.00
2022-09-07T01:08:03.535Z,0.00
2022-09-07T01:09:03.524Z,0.00
2022-09-07T01:10:03.546Z,0.00
2022-09-07T01:11:03.504Z,0.00
2022-09-07T01:12:03.477Z,0.00
2022-09-07T01:13:03.474Z,0.00
2022-09-07T01:14:03.479Z,0.00
2022-09-07T01:15:03.452Z,0.00
2022-09-07T01:16:03.503Z,0.00
2022-09-07T01:17:03.417Z,0.00
2022-09-07T01:18:03.406Z,0.00
2022-09-07T01:19:03.406Z,0.00
2022-09-07T01:20:03.386Z,0.00
2022-09-07T01:21:03.403Z,0.00
2022-09-07T01:22:03.346Z,0.00
2022-09-07T01:23:03.377Z,0.00
2022-09-07T01:24:03.318Z,0.00
2022-09-07T01:25:03.317Z,0.00
2022-09-07T01:26:03.337Z,0.00
2022-09-07T01:27:03.287Z,0.00
2022-09-07T01:28:03.274Z,0.00
2022-09-07T01:29:03.267Z,0.00
2022-09-07T01:30:03.279Z,0.00
2022-09-07T01:31:03.351Z,0.00
2022-09-07T01:32:03.218Z,0.00
2022-09-07T01:33:03.208Z,0.00
2022-09-07T01:34:03.203Z,0.00
2022-09-07T01:35:03.209Z,0.00
2022-09-07T01:36:03.164Z,0.00
2022-09-07T01:37:03.158Z,0.00
2022-09-07T01:38:03.139Z,0.00
2022-09-07T01:39:03.144Z,0.00
2022-09-07T01:40:03.227Z,0.00
2022-09-07T01:41:03.108Z,0.00
2022-09-07T01:42:03.088Z,0.00
2022-09-07T01:43:03.083Z,0.00
2022-09-07T01:44:03.060Z,0.00
2022-09-07T01:45:03.078Z,0.00
2022-09-07T01:46:03.076Z,0.00
2022-09-07T01:47:03.031Z,0.00
2022-09-07T01:48:03.008Z,0.00
2022-09-07T01:49:03.031Z,0.00
2022-09-07T01:50:03.020Z,0.00
2022-09-07T01:51:02.969Z,0.00
2022-09-07T01:52:02.959Z,0.00
2022-09-07T01:53:02.948Z,0.00
2022-09-07T01:54:02.936Z,0.00
2022-09-07T01:55:02.945Z,0.00
2022-09-07T01:56:02.912Z,0.00
2022-09-07T01:57:02.889Z,0.00
2022-09-07T01:58:02.879Z,0.00
2022-09-07T01:59:02.873Z,0.00
2022-09-07T02:00:02.886Z,0.00
2022-09-07T02:01:02.844Z,0.00
2022-09-07T02:02:02.925Z,0.00
2022-09-07T02:03:02.865Z,0.00
2022-09-07T02:04:02.810Z,0.00
2022-09-07T02:05:02.820Z,0.00
2022-09-07T02:06:02.780Z,0.00
2022-09-07T02:07:02.771Z,0.00
2022-09-07T02:08:02.760Z,0.00
2022-09-07T02:09:02.772Z,0.00
2022-09-07T02:10:02.759Z,0.00
2022-09-07T02:11:02.711Z,0.00
2022-09-07T02:12:02.771Z,0.00
2022-09-07T02:13:02.691Z,0.00
2022-09-07T02:14:02.676Z,0.00
2022-09-07T02:15:03.599Z,0.00
2022-09-07T02:16:02.708Z,0.00
2022-09-07T02:17:02.641Z,0.00
2022-09-07T02:18:02.621Z,0.00
2022-09-07T02:19:02.602Z,0.00
2022-09-07T02:20:02.599Z,0.00
2022-09-07T02:21:02.601Z,0.00
2022-09-07T02:22:02.573Z,0.00
2022-09-07T02:23:02.551Z,0.00
2022-09-07T02:24:02.542Z,0.00
2022-09-07T02:25:02.530Z,0.00
2022-09-07T02:26:02.543Z,0.00
2022-09-07T02:27:02.502Z,0.00
2022-09-07T02:28:02.497Z,0.00
2022-09-07T02:29:02.472Z,0.00
2022-09-07T02:30:02.473Z,0.00
2022-09-07T02:31:02.557Z,0.00
2022-09-07T02:32:02.444Z,0.00
2022-09-07T02:33:02.426Z,0.00
2022-09-07T02:34:02.420Z,0.00
2022-09-07T02:35:02.414Z,0.00
2022-09-07T02:36:02.422Z,0.00
2022-09-07T02:37:02.374Z,0.00
2022-09-07T02:38:02.362Z,0.00
2022-09-07T02:39:02.345Z,0.00
2022-09-07T02:40:02.407Z,0.00
2022-09-07T02:41:02.350Z,0.00
2022-09-07T02:42:02.314Z,0.00
2022-09-07T02:43:02.293Z,0.00
2022-09-07T02:44:02.284Z,0.00
2022-09-07T02:45:02.274Z,0.00
2022-09-07T02:46:02.432Z,0.00
2022-09-07T02:47:02.245Z,0.00
2022-09-07T02:48:02.256Z,0.00
2022-09-07T02:49:02.214Z,0.00
2022-09-07T02:50:02.206Z,0.00
2022-09-07T02:51:02.214Z,0.00
2022-09-07T02:52:02.197Z,0.00
2022-09-07T02:53:02.173Z,0.00
2022-09-07T02:54:02.155Z,0.00
2022-09-07T02:55:02.136Z,0.00
2022-09-07T02:56:02.155Z,0.00
2022-09-07T02:57:02.117Z,0.00
2022-09-07T02:58:02.105Z,0.00
2022-09-07T02:59:02.085Z,0.00
2022-09-07T03:00:02.075Z,0.00
2022-09-07T03:01:02.158Z,0.00
2022-09-07T03:02:02.056Z,0.00
2022-09-07T03:03:02.038Z,0.00
2022-09-07T03:04:02.027Z,0.00
2022-09-07T03:05:02.014Z,0.00
2022-09-07T03:06:02.036Z,0.00
2022-09-07T03:07:01.982Z,0.00
2022-09-07T03:08:01.976Z,0.00
2022-09-07T03:09:01.956Z,0.00
2022-09-07T03:10:01.984Z,0.00
2022-09-07T03:11:01.926Z,0.00
2022-09-07T03:12:01.936Z,0.00
2022-09-07T03:13:01.906Z,0.00
2022-09-07T03:14:01.897Z,0.00
2022-09-07T03:15:01.916Z,0.00
2022-09-07T03:16:02.046Z,0.00
2022-09-07T03:17:01.847Z,0.00
2022-09-07T03:18:01.859Z,0.00
2022-09-07T03:19:01.829Z,0.00
2022-09-07T03:20:01.853Z,0.00
2022-09-07T03:21:01.807Z,0.00
2022-09-07T03:22:01.797Z,0.00
2022-09-07T03:23:01.777Z,0.00
2022-09-07T03:24:01.768Z,0.00
2022-09-07T03:25:01.787Z,0.00
2022-09-07T03:26:01.738Z,0.00
2022-09-07T03:27:01.808Z,0.00
2022-09-07T03:28:01.721Z,0.00
2022-09-07T03:29:01.700Z,0.00
2022-09-07T03:30:01.729Z,0.00
2022-09-07T03:31:01.741Z,0.00
2022-09-07T03:32:01.678Z,0.00
2022-09-07T03:33:01.649Z,0.00
2022-09-07T03:34:01.649Z,0.00
2022-09-07T03:35:01.649Z,0.00
2022-09-07T03:36:01.610Z,0.00
2022-09-07T03:37:01.598Z,0.00
2022-09-07T03:38:01.588Z,0.00
2022-09-07T03:39:01.572Z,0.00
2022-09-07T03:40:01.643Z,0.00
2022-09-07T03:41:01.539Z,0.00
2022-09-07T03:42:01.532Z,0.00
2022-09-07T03:43:01.509Z,0.00
2022-09-07T03:44:01.581Z,0.00
2022-09-07T03:45:01.520Z,0.00
2022-09-07T03:46:01.542Z,0.00
2022-09-07T03:47:01.511Z,0.00
2022-09-07T03:48:01.450Z,0.00
2022-09-07T03:49:01.440Z,0.00
2022-09-07T03:50:01.459Z,0.00
2022-09-07T03:51:01.410Z,0.00
2022-09-07T03:52:01.400Z,0.00
2022-09-07T03:53:01.382Z,0.00
2022-09-07T03:54:01.380Z,0.00
2022-09-07T03:55:01.380Z,0.00
2022-09-07T03:56:01.351Z,0.00
2022-09-07T03:57:01.332Z,0.00
2022-09-07T03:58:01.328Z,0.00
2022-09-07T03:59:01.312Z,0.00
2022-09-07T04:00:01.332Z,0.00
2022-09-07T04:01:01.303Z,0.00
2022-09-07T04:02:01.343Z,0.00
2022-09-07T04:03:01.257Z,0.00
2022-09-07T04:04:02.364Z,0.00
2022-09-07T04:05:01.278Z,0.00
2022-09-07T04:06:01.239Z,0.00
2022-09-07T04:07:01.207Z,0.00
2022-09-07T04:08:01.203Z,0.00
2022-09-07T04:09:01.193Z,0.00
2022-09-07T04:10:01.218Z,0.00
2022-09-07T04:11:01.156Z,0.00
2022-09-07T04:12:01.153Z,0.00
2022-09-07T04:13:01.127Z,0.00
2022-09-07T04:14:01.141Z,0.00
2022-09-07T04:15:01.126Z,0.00
2022-09-07T04:16:01.068Z,1.00
2022-09-07T04:17:01.170Z,0.00
2022-09-07T04:18:01.835Z,0.00
2022-09-07T04:19:01.018Z,1.00
2022-09-07T04:20:01.018Z,1.00
2022-09-07T04:21:00.977Z,1.00
2022-09-07T04:22:01.013Z,0.00
2022-09-07T04:23:00.993Z,0.00
2022-09-07T04:24:00.944Z,2.00
2022-09-07T04:25:00.953Z,1.00
2022-09-07T04:26:00.910Z,1.00
2022-09-07T04:27:00.903Z,1.00
2022-09-07T04:28:00.883Z,2.00
2022-09-07T04:29:00.874Z,2.00
2022-09-07T04:30:01.823Z,1.00
2022-09-07T04:31:00.922Z,5.00
2022-09-07T04:32:00.876Z,5.00
2022-09-07T04:33:00.823Z,5.00
2022-09-07T04:34:00.813Z,7.00
2022-09-07T04:35:00.814Z,6.00
2022-09-07T04:36:00.780Z,6.00
2022-09-07T04:37:00.767Z,8.00
2022-09-07T04:38:00.754Z,6.00
2022-09-07T04:39:00.741Z,2.00
2022-09-07T04:40:00.808Z,4.00
2022-09-07T04:41:00.722Z,4.00
2022-09-07T04:42:00.703Z,8.00
2022-09-07T04:43:00.686Z,11.00
2022-09-07T04:44:00.676Z,8.00
2022-09-07T04:45:00.686Z,9.00
2022-09-07T04:46:00.675Z,13.00
2022-09-07T04:47:00.631Z,14.00
2022-09-07T04:48:00.632Z,16.00
2022-09-07T04:49:00.605Z,18.00
2022-09-07T04:50:00.646Z,16.00
2022-09-07T04:51:05.254Z,14.00
2022-09-07T04:52:01.575Z,23.00
2022-09-07T04:53:00.556Z,20.00
2022-09-07T04:54:00.606Z,25.00
2022-09-07T04:55:00.558Z,25.00
2022-09-07T04:56:00.524Z,26.00
2022-09-07T04:57:00.505Z,32.00
2022-09-07T04:58:00.495Z,34.00
2022-09-07T04:59:00.585Z,37.00
2022-09-07T05:00:00.496Z,43.00
2022-09-07T05:01:00.503Z,53.00
2022-09-07T05:02:00.472Z,61.00
2022-09-07T05:03:00.429Z,67.00
2022-09-07T05:04:00.420Z,74.00
2022-09-07T05:05:02.776Z,81.00
2022-09-07T05:06:00.441Z,82.00
2022-09-07T05:07:00.374Z,81.00
2022-09-07T05:08:00.378Z,81.00
2022-09-07T05:09:00.353Z,86.00
2022-09-07T05:10:00.386Z,89.00
2022-09-07T05:11:00.330Z,93.00
2022-09-07T05:12:00.306Z,103.00
2022-09-07T05:13:00.310Z,113.00
2022-09-07T05:14:00.443Z,124.00
2022-09-07T05:15:00.296Z,118.00
2022-09-07T05:16:00.256Z,129.00
2022-09-07T05:17:00.335Z,141.00
2022-09-07T05:18:00.227Z,152.00
2022-09-07T05:19:00.227Z,167.00
2022-09-07T05:20:00.247Z,179.00
2022-09-07T05:21:00.197Z,189.00
2022-09-07T05:22:00.178Z,206.00
2022-09-07T05:23:00.168Z,221.00
2022-09-07T05:24:00.178Z,228.00
2022-09-07T05:25:00.150Z,232.00
2022-09-07T05:26:00.125Z,261.00
2022-09-07T05:27:00.123Z,291.00
2022-09-07T05:28:00.099Z,318.00
2022-09-07T05:30:01.211Z,364.00
2022-09-07T05:32:01.358Z,411.00
2022-09-07T05:33:00.049Z,438.00
2022-09-07T05:35:01.009Z,481.00
2022-09-07T05:35:59.998Z,496.00
2022-09-07T05:36:59.995Z,513.00
2022-09-07T05:37:59.972Z,533.00
2022-09-07T05:38:59.990Z,543.00
2022-09-07T05:40:00.118Z,574.00
2022-09-07T05:40:59.988Z,603.00
2022-09-07T05:41:59.919Z,624.00
2022-09-07T05:42:59.942Z,638.00
2022-09-07T05:45:00.879Z,673.00
2022-09-07T05:45:59.935Z,696.00
2022-09-07T05:46:59.861Z,714.00
2022-09-07T05:47:59.840Z,726.00
2022-09-07T05:48:59.859Z,737.00
2022-09-07T05:49:59.811Z,749.00
2022-09-07T05:50:59.808Z,756.00
2022-09-07T05:51:59.791Z,751.00
2022-09-07T05:52:59.780Z,767.00
2022-09-07T05:53:59.790Z,808.00
2022-09-07T05:55:13.371Z,789.00
2022-09-07T05:56:05.166Z,799.00
2022-09-07T05:57:00.750Z,798.00
2022-09-07T05:57:59.710Z,804.00
2022-09-07T05:58:59.741Z,818.00
2022-09-07T05:59:59.691Z,825.00
2022-09-07T06:00:59.680Z,835.00
2022-09-07T06:01:59.721Z,818.00
2022-09-07T06:02:59.770Z,816.00
2022-09-07T06:03:59.630Z,823.00
2022-09-07T06:04:59.652Z,842.00
2022-09-07T06:05:59.611Z,864.00
2022-09-07T06:07:20.685Z,878.00
2022-09-07T06:08:00.581Z,895.00
2022-09-07T06:08:59.571Z,913.00
2022-09-07T06:11:00.542Z,910.00
2022-09-07T06:11:59.529Z,897.00
2022-09-07T06:12:59.521Z,893.00
2022-09-07T06:13:59.512Z,894.00
2022-09-07T06:14:59.540Z,892.00
2022-09-07T06:15:59.472Z,908.00
2022-09-07T06:16:59.504Z,921.00
2022-09-07T06:17:59.452Z,957.00
2022-09-07T06:18:59.476Z,971.00
2022-09-07T06:19:59.451Z,981.00
2022-09-07T06:20:59.412Z,1000.00
2022-09-07T06:21:59.400Z,1006.00
2022-09-07T06:22:59.382Z,1016.00
2022-09-07T06:23:59.384Z,1024.00
2022-09-07T06:24:59.406Z,1035.00
2022-09-07T06:25:59.350Z,1047.00
2022-09-07T06:26:59.342Z,1055.00
2022-09-07T06:27:59.323Z,1064.00
2022-09-07T06:28:59.314Z,1056.00
2022-09-07T06:29:59.352Z,1017.00
2022-09-07T06:30:59.310Z,1007.00
2022-09-07T06:33:00.261Z,1083.00
2022-09-07T06:33:59.273Z,1108.00
2022-09-07T06:34:59.235Z,1124.00
2022-09-07T06:35:59.230Z,1147.00
2022-09-07T06:36:59.203Z,1098.00
2022-09-07T06:37:59.192Z,1068.00
2022-09-07T06:38:59.216Z,1057.00
2022-09-07T06:39:59.223Z,1049.00
2022-09-07T06:42:00.424Z,1091.00
2022-09-07T06:42:59.143Z,1088.00
2022-09-07T06:43:59.155Z,1111.00
2022-09-07T06:44:59.125Z,1089.00
2022-09-07T06:47:03.486Z,1093.00
2022-09-07T06:47:59.085Z,1088.00
2022-09-07T06:48:59.085Z,1134.00
2022-09-07T06:49:59.034Z,1095.00
2022-09-07T06:50:59.032Z,1126.00
2022-09-07T06:51:59.006Z,1050.00
2022-09-07T06:55:02.006Z,1075.00
2022-09-07T06:55:58.955Z,1093.00
2022-09-07T06:56:58.985Z,1001.00
2022-09-07T06:57:58.932Z,1099.00
2022-09-07T06:58:58.954Z,1300.00
2022-09-07T06:59:58.905Z,1178.00
2022-09-07T07:00:58.920Z,1426.00
2022-09-07T07:01:58.885Z,1392.00
2022-09-07T07:02:58.920Z,1610.00
2022-09-07T07:03:58.876Z,1228.00
2022-09-07T07:04:58.853Z,2166.00
2022-09-07T07:05:58.828Z,1437.00
2022-09-07T07:06:58.976Z,1943.00
2022-09-07T07:07:58.799Z,1306.00
2022-09-07T07:08:58.824Z,1372.00
2022-09-07T07:09:58.820Z,1297.00
2022-09-07T07:10:58.777Z,1594.00
2022-09-07T07:11:58.787Z,1110.00
2022-09-07T07:12:58.870Z,1456.00
2022-09-07T07:13:58.727Z,1359.00
2022-09-07T07:14:58.745Z,1297.00
2022-09-07T07:15:58.732Z,943.00
2022-09-07T07:16:58.694Z,1402.00
2022-09-07T07:18:05.430Z,1283.00
2022-09-07T07:18:59.658Z,1315.00
2022-09-07T07:19:58.677Z,1385.00
2022-09-07T07:20:58.637Z,1451.00
2022-09-07T07:22:18.679Z,1310.00
2022-09-07T07:22:59.608Z,959.00
2022-09-07T07:23:58.630Z,1366.00
2022-09-07T07:24:58.588Z,2173.00
2022-09-07T07:25:58.558Z,566.00
2022-09-07T07:26:58.557Z,1474.00
2022-09-07T07:29:58.509Z,1319.00
2022-09-07T07:30:58.508Z,1215.00
2022-09-07T07:31:58.488Z,1229.00
2022-09-07T07:32:58.507Z,1316.00
2022-09-07T07:33:58.542Z,1643.00
2022-09-07T07:34:58.457Z,1359.00
2022-09-07T07:35:58.439Z,637.00
2022-09-07T07:36:58.457Z,1209.00
2022-09-07T07:39:00.045Z,561.00
2022-09-07T07:42:03.026Z,1506.00
2022-09-07T07:42:59.370Z,1174.00
2022-09-07T07:43:58.363Z,1261.00
2022-09-07T07:46:01.282Z,955.00
2022-09-07T07:46:58.374Z,2781.00
2022-09-07T07:47:58.280Z,1143.00
2022-09-07T07:48:58.308Z,1165.00
2022-09-07T07:51:00.281Z,617.00
2022-09-07T07:53:59.629Z,1850.00
2022-09-07T07:54:58.296Z,1712.00
2022-09-07T07:55:58.182Z,2078.00
2022-09-07T07:56:58.173Z,1724.00
2022-09-07T07:57:58.152Z,1997.00
2022-09-07T07:58:58.172Z,1992.00
2022-09-07T07:59:58.132Z,2151.00
2022-09-07T08:00:58.372Z,2138.00
2022-09-07T08:01:58.219Z,2082.00
2022-09-07T08:02:58.093Z,2101.00
2022-09-07T08:03:58.103Z,2313.00
2022-09-07T08:04:58.070Z,2412.00
2022-09-07T08:05:58.053Z,2328.00
2022-09-07T08:06:58.044Z,2196.00
2022-09-07T08:07:58.026Z,1959.00
2022-09-07T08:08:58.044Z,1955.00
2022-09-07T08:09:58.004Z,1706.00
2022-09-07T08:10:58.044Z,1596.00
2022-09-07T08:11:57.974Z,1342.00
2022-09-07T08:12:57.968Z,1322.00
2022-09-07T08:13:57.975Z,1443.00
2022-09-07T08:14:57.935Z,1477.00
2022-09-07T08:15:57.954Z,1568.00
2022-09-07T08:16:57.906Z,1288.00
2022-09-07T08:17:57.896Z,987.00
2022-09-07T08:18:57.913Z,1179.00
2022-09-07T08:19:57.866Z,1027.00
2022-09-07T08:20:57.866Z,1068.00
2022-09-07T08:21:57.872Z,1194.00
2022-09-07T08:22:57.827Z,1086.00
2022-09-07T08:23:57.863Z,3262.00
2022-09-07T08:24:57.808Z,1030.00
2022-09-07T08:25:57.797Z,529.00
2022-09-07T08:26:57.777Z,899.00
2022-09-07T08:27:57.767Z,1318.00
2022-09-07T08:28:57.790Z,1547.00
2022-09-07T08:29:57.727Z,1065.00
2022-09-07T08:30:57.837Z,1082.00
2022-09-07T08:31:57.793Z,1089.00
2022-09-07T08:32:57.698Z,1098.00
2022-09-07T08:33:57.717Z,1107.00
2022-09-07T08:34:57.679Z,1113.00
2022-09-07T08:35:57.660Z,1124.00
2022-09-07T08:36:57.658Z,1130.00
2022-09-07T08:37:57.629Z,1143.00
2022-09-07T08:38:57.649Z,1152.00
2022-09-07T08:39:57.649Z,1161.00
2022-09-07T08:40:57.595Z,1170.00
2022-09-07T08:41:57.579Z,1172.00
2022-09-07T08:42:57.570Z,1174.00
2022-09-07T08:43:57.609Z,1172.00
2022-09-07T08:44:57.601Z,1181.00
2022-09-07T08:45:57.531Z,1180.00
2022-09-07T08:46:57.654Z,1180.00
2022-09-07T08:47:57.509Z,1194.00
2022-09-07T08:48:57.524Z,1199.00
2022-09-07T08:49:57.515Z,1205.00
2022-09-07T08:50:57.462Z,1213.00
2022-09-07T08:51:57.483Z,1222.00
2022-09-07T08:52:57.444Z,1227.00
2022-09-07T08:53:57.450Z,1234.00
2022-09-07T08:54:57.438Z,1238.00
2022-09-07T08:55:57.402Z,1244.00
2022-09-07T08:57:58.363Z,1260.00
2022-09-07T08:58:57.384Z,1269.00
2022-09-07T08:59:57.345Z,1284.00
2022-09-07T09:05:58.353Z,1357.00
2022-09-07T09:06:57.426Z,1373.00
2022-09-07T09:07:57.235Z,1404.00
2022-09-07T09:08:57.256Z,1451.00
2022-09-07T09:09:57.236Z,3645.00
2022-09-07T09:10:57.237Z,1550.00
2022-09-07T09:11:57.186Z,1147.00
2022-09-07T09:12:57.256Z,1596.00
2022-09-07T09:13:57.207Z,3818.00
2022-09-07T09:14:57.148Z,3380.00
2022-09-07T09:15:57.170Z,953.00
2022-09-07T09:16:57.247Z,1473.00
2022-09-07T09:17:57.107Z,3538.00
2022-09-07T09:18:57.118Z,2876.00
2022-09-07T09:19:58.039Z,3729.00
2022-09-07T09:20:57.068Z,1163.00
2022-09-07T09:21:57.058Z,1527.00
2022-09-07T09:22:57.048Z,3362.00
2022-09-07T09:23:57.329Z,2107.00
2022-09-07T09:24:57.019Z,1898.00
2022-09-07T09:25:57.009Z,1155.00
2022-09-07T09:26:56.991Z,1244.00
2022-09-07T09:27:57.002Z,1880.00
2022-09-07T09:28:56.991Z,1757.00
2022-09-07T09:29:56.961Z,1219.00
2022-09-07T09:30:57.007Z,1261.00
2022-09-07T09:31:56.931Z,1074.00
2022-09-07T09:32:56.915Z,723.00
2022-09-07T09:33:56.971Z,1023.00
2022-09-07T09:34:56.894Z,1354.00
2022-09-07T09:35:56.881Z,4530.00
2022-09-07T09:36:56.865Z,2794.00
2022-09-07T09:37:56.854Z,2138.00
2022-09-07T09:38:56.862Z,1084.00
2022-09-07T09:39:59.241Z,1322.00
2022-09-07T09:40:57.803Z,2287.00
2022-09-07T09:41:56.800Z,2177.00
2022-09-07T09:42:56.782Z,5805.00
2022-09-07T09:43:56.793Z,1149.00
2022-09-07T09:44:56.754Z,1827.00
2022-09-07T09:46:12.715Z,2105.00
2022-09-07T09:47:57.752Z,1938.00
2022-09-07T09:48:56.734Z,1732.00
2022-09-07T09:49:56.695Z,1728.00
2022-09-07T09:52:57.657Z,1841.00
2022-09-07T09:53:57.617Z,1866.00
2022-09-07T09:55:03.414Z,2191.00
2022-09-07T09:55:57.616Z,1850.00
2022-09-07T09:56:56.599Z,5558.00
2022-09-07T09:59:05.313Z,1871.00
2022-09-07T10:00:01.491Z,1898.00
2022-09-07T10:03:59.528Z,783.00
2022-09-07T10:04:56.499Z,2950.00
2022-09-07T10:05:56.491Z,1197.00
2022-09-07T10:06:56.469Z,1180.00
2022-09-07T10:07:56.489Z,1835.00
2022-09-07T10:08:56.480Z,1816.00
2022-09-07T10:09:56.522Z,1795.00
2022-09-07T10:10:56.420Z,2983.00
2022-09-07T10:12:11.614Z,4834.00
2022-09-07T10:12:57.401Z,935.00
2022-09-07T10:13:56.432Z,2292.00
2022-09-07T10:14:56.438Z,1100.00
2022-09-07T10:15:56.432Z,6097.00
2022-09-07T10:16:56.343Z,2113.00
2022-09-07T10:17:56.362Z,1054.00
2022-09-07T10:18:56.323Z,1664.00
2022-09-07T10:19:56.373Z,4203.00
2022-09-07T10:20:56.301Z,1331.00
2022-09-07T10:21:56.290Z,1532.00
2022-09-07T10:22:56.270Z,1807.00
2022-09-07T10:23:57.214Z,1958.00
2022-09-07T10:24:57.032Z,6961.00
2022-09-07T10:25:56.243Z,2031.00
2022-09-07T10:26:56.223Z,1433.00
2022-09-07T10:27:56.231Z,4559.00
2022-09-07T10:29:11.940Z,5411.00
2022-09-07T10:29:57.215Z,2421.00
2022-09-07T10:30:56.224Z,2155.00
2022-09-07T10:31:56.166Z,2088.00
2022-09-07T10:32:56.156Z,2022.00
2022-09-07T10:34:57.147Z,1659.00
2022-09-07T10:35:56.114Z,1074.00
2022-09-07T10:36:56.090Z,2122.00
2022-09-07T10:37:56.431Z,2068.00
2022-09-07T10:38:56.068Z,2290.00
2022-09-07T10:40:00.295Z,2561.00
2022-09-07T10:40:56.039Z,2386.00
2022-09-07T10:41:56.058Z,1878.00
2022-09-07T10:43:57.008Z,1857.00
2022-09-07T10:44:56.019Z,1781.00
2022-09-07T10:45:56.011Z,1244.00
2022-09-07T10:46:56.644Z,3096.00
2022-09-07T10:47:55.962Z,1391.00
2022-09-07T10:48:55.939Z,2849.00
2022-09-07T10:50:56.912Z,2431.00
2022-09-07T10:51:55.909Z,3246.00
2022-09-07T10:52:55.891Z,1356.00
2022-09-07T10:54:56.891Z,2452.00
2022-09-07T10:55:55.852Z,2044.00
2022-09-07T10:56:55.843Z,1558.00
2022-09-07T10:57:55.833Z,1657.00
2022-09-07T10:59:03.912Z,1922.00
2022-09-07T11:00:12.232Z,1803.00
2022-09-07T11:00:56.791Z,2240.00
2022-09-07T11:01:55.866Z,1854.00
2022-09-07T11:03:56.813Z,2392.00
2022-09-07T11:04:55.768Z,5711.00
2022-09-07T11:05:55.740Z,1867.00
2022-09-07T11:06:55.811Z,2327.00
2022-09-07T11:07:55.710Z,1241.00
2022-09-07T11:09:56.704Z,2073.00
2022-09-07T11:10:55.659Z,1949.00
2022-09-07T11:12:03.862Z,1752.00
2022-09-07T11:12:56.634Z,1633.00
2022-09-07T11:14:12.103Z,1363.00
2022-09-07T11:14:56.640Z,1049.00
2022-09-07T11:15:55.652Z,1628.00
2022-09-07T11:16:55.708Z,2608.00
2022-09-07T11:17:55.583Z,1646.00
2022-09-07T11:19:34.964Z,2039.00
2022-09-07T11:19:56.578Z,1732.00
2022-09-07T11:20:55.596Z,1853.00
2022-09-07T11:21:56.738Z,2014.00
2022-09-07T11:22:55.508Z,2019.00
2022-09-07T11:23:55.500Z,5588.00
2022-09-07T11:25:56.479Z,1908.00
2022-09-07T11:26:55.459Z,1841.00
2022-09-07T11:27:55.458Z,1874.00
2022-09-07T11:29:56.509Z,1871.00
2022-09-07T11:30:59.297Z,5706.00
2022-09-07T11:31:55.402Z,3580.00
2022-09-07T11:32:55.381Z,744.00
2022-09-07T11:34:56.486Z,2150.00
2022-09-07T11:35:55.371Z,1787.00
2022-09-07T11:36:55.352Z,1745.00
2022-09-07T11:37:55.345Z,1614.00
2022-09-07T11:38:55.337Z,724.00
2022-09-07T11:39:55.411Z,1208.00
2022-09-07T11:40:55.287Z,5323.00
2022-09-07T11:41:56.226Z,991.00
2022-09-07T11:42:55.274Z,1402.00
2022-09-07T11:43:55.252Z,1895.00
2022-09-07T11:44:55.256Z,1891.00
2022-09-07T11:45:55.304Z,4621.00
2022-09-07T11:46:55.966Z,4076.00
2022-09-07T11:47:55.197Z,791.00
2022-09-07T11:48:55.175Z,1326.00
2022-09-07T11:49:59.137Z,3821.00
2022-09-07T11:50:55.195Z,1654.00
2022-09-07T11:51:55.175Z,1351.00
2022-09-07T11:52:55.126Z,968.00
2022-09-07T11:53:55.178Z,1768.00
2022-09-07T11:54:55.163Z,1854.00
2022-09-07T11:55:55.091Z,1887.00
2022-09-07T11:56:55.068Z,1901.00
2022-09-07T11:57:55.945Z,1947.00
2022-09-07T11:58:55.098Z,6202.00
2022-09-07T11:59:55.068Z,1163.00
2022-09-07T12:00:55.198Z,5937.00
2022-09-07T12:01:55.010Z,2426.00
2022-09-07T12:02:59.961Z,2042.00
2022-09-07T12:03:56.187Z,2358.00
2022-09-07T12:04:56.478Z,2279.00
2022-09-07T12:05:54.966Z,1727.00
2022-09-07T12:06:54.970Z,1708.00
2022-09-07T12:07:54.940Z,1153.00
2022-09-07T12:08:54.920Z,2624.00
2022-09-07T12:09:54.942Z,1782.00
2022-09-07T12:10:54.921Z,5775.00
2022-09-07T12:11:55.831Z,2122.00
2022-09-07T12:12:54.868Z,1078.00
2022-09-07T12:13:54.905Z,5600.00
2022-09-07T12:14:54.908Z,1157.00
2022-09-07T12:15:54.994Z,3437.00
2022-09-07T12:16:54.834Z,1762.00
2022-09-07T12:17:54.824Z,1187.00
2022-09-07T12:18:54.795Z,1201.00
2022-09-07T12:19:54.825Z,5849.00
2022-09-07T12:20:54.763Z,1031.00
2022-09-07T12:21:54.847Z,1486.00
2022-09-07T12:22:54.767Z,2620.00
2022-09-07T12:23:54.735Z,6086.00
2022-09-07T12:24:54.744Z,1588.00
2022-09-07T12:25:58.959Z,3471.00
2022-09-07T12:26:54.696Z,876.00
2022-09-07T12:27:54.685Z,1218.00
2022-09-07T12:28:54.706Z,1670.00
2022-09-07T12:29:54.686Z,4213.00
2022-09-07T12:30:54.779Z,1304.00
2022-09-07T12:31:59.670Z,1529.00
2022-09-07T12:32:56.862Z,1871.00
2022-09-07T12:33:54.616Z,1645.00
2022-09-07T12:34:54.703Z,5006.00
2022-09-07T12:35:54.589Z,1657.00
2022-09-07T12:36:54.570Z,1326.00
2022-09-07T12:37:54.553Z,2048.00
2022-09-07T12:38:54.540Z,5945.00
2022-09-07T12:39:54.628Z,2744.00
2022-09-07T12:40:54.549Z,1291.00
2022-09-07T12:42:55.524Z,1204.00
2022-09-07T12:43:54.482Z,5345.00
2022-09-07T12:44:54.490Z,1819.00
2022-09-07T12:45:54.503Z,1187.00
2022-09-07T12:46:54.450Z,1839.00
2022-09-07T12:47:54.440Z,1887.00
2022-09-07T12:48:55.184Z,2416.00
2022-09-07T12:49:54.434Z,1950.00
2022-09-07T12:50:54.391Z,1830.00
2022-09-07T12:52:09.137Z,2011.00
2022-09-07T12:52:55.358Z,1853.00
2022-09-07T12:53:57.539Z,1772.00
2022-09-07T12:55:16.448Z,1846.00
2022-09-07T12:57:55.334Z,1906.00
2022-09-07T12:58:54.343Z,2470.00
2022-09-07T12:59:55.127Z,1557.00
2022-09-07T13:00:54.344Z,1602.00
2022-09-07T13:01:54.471Z,1669.00
2022-09-07T13:02:54.255Z,1829.00
2022-09-07T13:03:54.306Z,1832.00
2022-09-07T13:04:54.432Z,2284.00
2022-09-07T13:05:54.297Z,2160.00
2022-09-07T13:07:02.420Z,1915.00
2022-09-07T13:08:01.705Z,2649.00
2022-09-07T13:08:55.227Z,1554.00
2022-09-07T13:09:54.787Z,2379.00
2022-09-07T13:10:54.309Z,1759.00
2022-09-07T13:11:54.260Z,1595.00
2022-09-07T13:12:56.480Z,1590.00
2022-09-07T13:14:02.873Z,1810.00
2022-09-07T13:14:55.349Z,1978.00
2022-09-07T13:15:54.560Z,1700.00
2022-09-07T13:17:55.093Z,1687.00
2022-09-07T13:18:54.176Z,1671.00
2022-09-07T13:19:54.249Z,1916.00